createdAt,value
2022-08-26T00:02:36.232Z,20.7
2022-08-26T00:04:42.429Z,20.8
2022-08-26T00:08:54.887Z,20.7
2022-08-26T00:11:01.126Z,20.7
2022-08-26T00:13:07.491Z,20.7
2022-08-26T00:17:23.933Z,20.6
2022-08-26T00:19:28.790Z,20.7
2022-08-26T00:20:33.289Z,20.6
2022-08-26T00:22:39.544Z,20.6
2022-08-26T00:24:48.013Z,20.7
2022-08-26T00:26:52.018Z,20.6
2022-08-26T00:29:00.980Z,20.7
2022-08-26T00:31:07.222Z,20.6
2022-08-26T00:33:13.464Z,20.7
2022-08-26T00:35:19.698Z,20.6
2022-08-26T00:37:25.939Z,20.7
2022-08-26T00:39:32.147Z,20.6
2022-08-26T00:41:38.418Z,20.6
2022-08-26T00:43:48.078Z,20.5
2022-08-26T00:45:53.727Z,20.5
2022-08-26T00:50:06.076Z,20.5
2022-08-26T00:52:13.133Z,20.6
2022-08-26T00:56:24.789Z,20.6
2022-08-26T00:58:33.764Z,20.5
2022-08-26T01:00:40.069Z,20.6
2022-08-26T01:04:54.273Z,20.5
2022-08-26T01:06:58.655Z,20.5
2022-08-26T01:09:04.875Z,20.5
2022-08-26T01:11:11.107Z,20.5
2022-08-26T01:13:20.202Z,20.5
2022-08-26T01:15:26.285Z,20.5
2022-08-26T01:17:33.749Z,20.4
2022-08-26T01:18:36.981Z,20.4
2022-08-26T01:27:04.673Z,20.3
2022-08-26T01:29:10.910Z,20.2
2022-08-26T01:37:35.820Z,20.2
2022-08-26T01:39:42.060Z,20.2
2022-08-26T01:41:53.760Z,20.1
2022-08-26T01:43:57.903Z,20.1
2022-08-26T01:46:03.538Z,20.2
2022-08-26T01:52:22.196Z,20.1
2022-08-26T01:56:37.423Z,20
2022-08-26T01:58:43.651Z,20
2022-08-26T02:00:50.000Z,20
2022-08-26T02:05:02.381Z,19.9
2022-08-26T02:09:15.094Z,20
2022-08-26T02:15:36.601Z,19.8
2022-08-26T02:20:53.369Z,19.8
2022-08-26T02:27:14.896Z,19.7
2022-08-26T02:29:21.329Z,19.8
2022-08-26T02:33:33.637Z,19.8
2022-08-26T02:39:55.241Z,19.7
2022-08-26T02:42:01.421Z,19.8
2022-08-26T02:50:26.431Z,19.7
2022-08-26T02:52:32.655Z,19.7
2022-08-26T02:54:41.681Z,19.7
2022-08-26T02:56:47.946Z,19.8
2022-08-26T02:58:54.192Z,19.8
2022-08-26T03:01:00.479Z,19.7
2022-08-26T03:03:06.794Z,19.8
2022-08-26T03:07:19.186Z,19.8
2022-08-26T03:09:28.234Z,19.8
2022-08-26T03:11:34.465Z,19.8
2022-08-26T03:13:40.733Z,19.8
2022-08-26T03:16:04.780Z,19.9
2022-08-26T03:22:26.232Z,19.9
2022-08-26T03:24:32.461Z,19.8
2022-08-26T03:26:38.691Z,19.8
2022-08-26T03:28:44.959Z,19.8
2022-08-26T03:30:52.772Z,19.8
2022-08-26T03:32:58.969Z,19.7
2022-08-26T03:35:05.208Z,19.7
2022-08-26T03:37:14.205Z,19.7
2022-08-26T03:39:20.443Z,19.7
2022-08-26T03:41:26.698Z,19.7
2022-08-26T03:43:32.937Z,19.6
2022-08-26T03:49:51.957Z,19.6
2022-08-26T03:54:06.895Z,19.6
2022-08-26T03:56:13.162Z,19.5
2022-08-26T04:00:25.661Z,19.5
2022-08-26T04:02:31.937Z,19.5
2022-08-26T04:04:38.155Z,19.4
2022-08-26T04:08:53.410Z,19.5
2022-08-26T04:12:04.182Z,19.4
2022-08-26T04:14:10.395Z,19.4
2022-08-26T04:16:16.674Z,19.4
2022-08-26T04:18:22.883Z,19.5
2022-08-26T04:22:38.146Z,19.5
2022-08-26T04:24:44.388Z,19.5
2022-08-26T04:26:50.650Z,19.5
2022-08-26T04:28:56.905Z,19.6
2022-08-26T04:31:03.273Z,19.6
2022-08-26T04:33:12.713Z,19.5
2022-08-26T04:35:20.864Z,19.6
2022-08-26T04:37:24.650Z,19.6
2022-08-26T04:39:30.934Z,19.6
2022-08-26T04:41:37.168Z,19.6
2022-08-26T04:43:43.446Z,19.6
2022-08-26T04:45:49.772Z,19.6
2022-08-26T04:47:55.931Z,19.7
2022-08-26T04:50:04.985Z,19.7
2022-08-26T04:52:11.178Z,19.7
2022-08-26T04:56:23.678Z,19.7
2022-08-26T04:58:29.952Z,19.7
2022-08-26T05:00:36.195Z,19.7
2022-08-26T05:02:42.450Z,19.8
2022-08-26T05:07:02.203Z,19.8
2022-08-26T05:09:03.988Z,19.8
2022-08-26T05:10:08.895Z,19.9
2022-08-26T05:12:14.703Z,19.9
2022-08-26T05:14:20.953Z,19.9
2022-08-26T05:16:27.294Z,19.9
2022-08-26T05:18:36.209Z,20
2022-08-26T05:22:48.721Z,20
2022-08-26T05:24:54.973Z,20
2022-08-26T05:27:01.209Z,20
2022-08-26T05:29:07.456Z,20
2022-08-26T05:31:13.778Z,20.1
2022-08-26T05:37:35.270Z,20.1
2022-08-26T05:43:54.046Z,20.2
2022-08-26T05:46:00.351Z,20.3
2022-08-26T05:54:28.025Z,20.3
2022-08-26T05:56:34.239Z,20.3
2022-08-26T05:58:40.513Z,20.3
2022-08-26T06:00:46.737Z,20.4
2022-08-26T06:05:01.977Z,20.4
2022-08-26T06:08:12.692Z,20.5
2022-08-26T06:10:32.251Z,20.5
2022-08-26T06:12:25.175Z,20.6
2022-08-26T06:14:31.389Z,20.7
2022-08-26T06:16:40.920Z,20.7
2022-08-26T06:18:46.606Z,20.8
2022-08-26T06:22:59.112Z,20.8
2022-08-26T06:25:05.337Z,20.8
2022-08-26T06:27:11.554Z,20.8
2022-08-26T06:29:24.420Z,20.6
2022-08-26T06:31:26.805Z,20.6
2022-08-26T06:35:39.215Z,20.6
2022-08-26T06:37:45.463Z,20.6
2022-08-26T06:39:51.756Z,20.7
2022-08-26T06:41:57.931Z,20.8
2022-08-26T06:44:04.163Z,20.8
2022-08-26T06:46:13.219Z,20.8
2022-08-26T06:48:19.372Z,20.8
2022-08-26T06:50:25.650Z,20.9
2022-08-26T06:52:31.820Z,20.9
2022-08-26T06:54:38.879Z,20.7
2022-08-26T06:56:44.305Z,20.7
2022-08-26T06:58:50.510Z,20.7
2022-08-26T07:01:02.594Z,20.6
2022-08-26T07:03:05.937Z,20.7
2022-08-26T07:05:11.997Z,20.7
2022-08-26T07:07:31.745Z,21
2022-08-26T07:09:37.961Z,21
2022-08-26T07:11:44.200Z,21
2022-08-26T07:13:53.542Z,21.3
2022-08-26T07:16:03.048Z,21.3
2022-08-26T07:18:05.646Z,21.6
2022-08-26T07:24:24.319Z,21.8
2022-08-26T07:28:39.508Z,22.1
2022-08-26T07:30:45.803Z,22.2
2022-08-26T07:32:51.933Z,22.1
2022-08-26T07:34:58.210Z,22
2022-08-26T07:37:04.415Z,22
2022-08-26T07:39:10.613Z,22
2022-08-26T07:41:16.913Z,22
2022-08-26T07:43:25.967Z,21.8
2022-08-26T07:45:32.024Z,21.8
2022-08-26T07:47:38.237Z,21.7
2022-08-26T07:49:44.451Z,21.7
2022-08-26T07:51:50.651Z,21.9
2022-08-26T07:53:56.853Z,21.9
2022-08-26T07:56:03.055Z,22
2022-08-26T07:58:12.053Z,22.1
2022-08-26T08:00:18.244Z,22.1
2022-08-26T08:02:24.455Z,22
2022-08-26T08:03:28.932Z,22.1
2022-08-26T08:05:35.216Z,21.9
2022-08-26T08:07:45.212Z,21.9
2022-08-26T08:09:47.524Z,22.1
2022-08-26T08:11:56.519Z,22.7
2022-08-26T08:14:02.708Z,22.6
2022-08-26T08:16:12.574Z,22.7
2022-08-26T08:18:15.484Z,22.8
2022-08-26T08:20:21.294Z,23.2
2022-08-26T08:22:27.487Z,23.4
2022-08-26T08:24:33.677Z,23.3
2022-08-26T08:26:42.643Z,22.6
2022-08-26T08:28:48.831Z,22.5
2022-08-26T08:30:55.084Z,22.2
2022-08-26T08:33:01.194Z,22.2
2022-08-26T08:35:10.802Z,22
2022-08-26T08:37:13.571Z,21.9
2022-08-26T08:39:19.767Z,21.9
2022-08-26T08:41:28.716Z,22
2022-08-26T08:43:37.630Z,22.1
2022-08-26T08:45:41.102Z,22.1
2022-08-26T08:47:47.301Z,22.1
2022-08-26T08:49:53.467Z,22
2022-08-26T08:51:59.639Z,22
2022-08-26T08:54:05.842Z,21.9
2022-08-26T08:56:14.686Z,21.9
2022-08-26T08:58:20.860Z,21.9
2022-08-26T09:00:30.661Z,21.9
2022-08-26T09:09:59.072Z,21.9
2022-08-26T09:12:05.260Z,22
2022-08-26T09:14:11.454Z,22
2022-08-26T09:16:19.204Z,21.9
2022-08-26T09:18:23.837Z,21.8
2022-08-26T09:20:30.054Z,21.7
2022-08-26T09:22:36.247Z,21.7
2022-08-26T09:24:48.392Z,21.8
2022-08-26T09:26:51.419Z,21.8
2022-08-26T09:28:57.606Z,21.9
2022-08-26T09:31:07.978Z,22
2022-08-26T09:33:10.944Z,22.3
2022-08-26T09:35:17.740Z,22.4
2022-08-26T09:37:24.014Z,22.5
2022-08-26T09:39:32.890Z,22.5
2022-08-26T09:41:39.074Z,22.5
2022-08-26T09:43:45.266Z,22.5
2022-08-26T09:45:52.158Z,22.5
2022-08-26T09:47:57.666Z,22.4
2022-08-26T09:50:03.898Z,22.4
2022-08-26T09:52:10.060Z,22.3
2022-08-26T09:54:20.678Z,22.5
2022-08-26T09:56:25.275Z,22.4
2022-08-26T09:58:31.473Z,22.3
2022-08-26T09:59:35.867Z,22.2
2022-08-26T10:01:42.350Z,22.2
2022-08-26T10:03:49.011Z,22.2
2022-08-26T10:08:03.427Z,21.9
2022-08-26T10:10:09.613Z,21.9
2022-08-26T10:14:22.013Z,21.7
2022-08-26T10:16:28.384Z,21.7
2022-08-26T10:20:40.608Z,22
2022-08-26T10:24:55.751Z,22.4
2022-08-26T10:27:02.068Z,22.8
2022-08-26T10:29:08.137Z,23.1
2022-08-26T10:31:14.343Z,23.2
2022-08-26T10:33:20.529Z,23.2
2022-08-26T10:35:26.725Z,23.2
2022-08-26T10:39:41.874Z,23.1
2022-08-26T10:41:48.069Z,23.1
2022-08-26T10:46:00.498Z,23.1
2022-08-26T10:48:06.680Z,23
2022-08-26T10:50:12.900Z,22.7
2022-08-26T10:52:21.784Z,22.8
2022-08-26T10:54:27.946Z,22.9
2022-08-26T10:56:34.131Z,23
2022-08-26T10:58:59.874Z,23.2
2022-08-26T11:03:21.746Z,23.3
2022-08-26T11:05:21.099Z,23.1
2022-08-26T11:07:27.248Z,23
2022-08-26T11:09:33.462Z,22.6
2022-08-26T11:11:39.643Z,22.3
2022-08-26T11:20:13.190Z,22
2022-08-26T11:22:13.316Z,22
2022-08-26T11:24:19.559Z,22.1
2022-08-26T11:26:37.736Z,22.2
2022-08-26T11:28:31.862Z,22.1
2022-08-26T11:30:38.027Z,22.2
2022-08-26T11:32:44.208Z,22.1
2022-08-26T11:34:53.169Z,22.1
2022-08-26T11:36:59.361Z,22
2022-08-26T11:39:05.555Z,22.1
2022-08-26T11:41:11.799Z,22.6
2022-08-26T11:43:17.940Z,22.8
2022-08-26T11:45:24.182Z,22.9
2022-08-26T11:47:31.057Z,23.3
2022-08-26T11:49:40.003Z,23.3
2022-08-26T11:53:52.402Z,23.2
2022-08-26T11:54:56.869Z,23.3
2022-08-26T11:57:07.825Z,23.3
2022-08-26T11:59:09.328Z,23.5
2022-08-26T12:01:15.416Z,23.8
2022-08-26T12:05:31.236Z,24
2022-08-26T12:07:36.706Z,23.9
2022-08-26T12:09:42.883Z,23.6
2022-08-26T12:11:49.082Z,23.4
2022-08-26T12:16:01.418Z,23.3
2022-08-26T12:18:10.470Z,22.8
2022-08-26T12:20:16.514Z,22.8
2022-08-26T12:22:22.677Z,22.7
2022-08-26T12:24:28.829Z,22.7
2022-08-26T12:26:34.999Z,22.7
2022-08-26T12:28:41.151Z,22.6
2022-08-26T12:30:47.343Z,22.4
2022-08-26T12:32:57.848Z,22.2
2022-08-26T12:35:07.672Z,22.1
2022-08-26T12:37:08.675Z,21.9
2022-08-26T12:39:14.844Z,21.8
2022-08-26T12:41:21.023Z,21.8
2022-08-26T12:43:27.193Z,21.8
2022-08-26T12:45:33.469Z,21.6
2022-08-26T12:47:43.790Z,21.6
2022-08-26T12:49:48.519Z,21.7
2022-08-26T12:52:00.604Z,21.7
2022-08-26T12:52:59.152Z,21.7
2022-08-26T12:57:11.611Z,21.6
2022-08-26T12:59:17.729Z,21.7
2022-08-26T13:01:26.824Z,22
2022-08-26T13:03:32.941Z,22.1
2022-08-26T13:05:39.108Z,22.3
2022-08-26T13:07:45.440Z,22.2
2022-08-26T13:16:12.907Z,22.6
2022-08-26T13:18:19.059Z,22.5
2022-08-26T13:22:31.549Z,22.2
2022-08-26T13:24:37.791Z,22.1
2022-08-26T13:26:43.818Z,22.1
2022-08-26T13:29:01.139Z,22
2022-08-26T13:30:58.959Z,22.3
2022-08-26T13:35:11.379Z,22.3
2022-08-26T13:37:17.573Z,22.3
2022-08-26T13:41:29.950Z,22.6
2022-08-26T13:43:36.124Z,22.5
2022-08-26T13:45:45.080Z,22.5
2022-08-26T13:47:51.316Z,22.4
2022-08-26T13:49:57.511Z,22.3
2022-08-26T13:51:01.995Z,22.4
2022-08-26T13:55:14.365Z,22.5
2022-08-26T13:57:20.517Z,22.5
2022-08-26T13:59:29.511Z,22.7
2022-08-26T14:01:36.434Z,22.6
2022-08-26T14:03:41.890Z,22.6
2022-08-26T14:10:00.430Z,22.7
2022-08-26T14:12:06.580Z,22.4
2022-08-26T14:16:21.937Z,22.4
2022-08-26T14:18:27.949Z,22.3
2022-08-26T14:22:43.664Z,22.6
2022-08-26T14:24:46.528Z,22.6
2022-08-26T14:26:52.722Z,22.6
2022-08-26T14:29:01.650Z,22.5
2022-08-26T14:31:07.849Z,22.4
2022-08-26T14:33:13.973Z,22.1
2022-08-26T14:35:20.207Z,22.1
2022-08-26T14:37:26.334Z,21.8
2022-08-26T14:39:32.559Z,21.5
2022-08-26T14:41:38.709Z,21.3
2022-08-26T14:43:47.701Z,21.2
2022-08-26T14:45:53.907Z,21.2
2022-08-26T14:48:00.081Z,21.3
2022-08-26T14:52:31.666Z,21.4
2022-08-26T14:54:37.889Z,21.5
2022-08-26T14:56:46.812Z,21.6
2022-08-26T15:00:59.243Z,21.6
2022-08-26T15:05:11.662Z,21.7
2022-08-26T15:09:24.033Z,21.9
2022-08-26T15:11:32.968Z,21.8
2022-08-26T15:13:39.172Z,21.9
2022-08-26T15:15:45.450Z,21.8
2022-08-26T15:22:03.971Z,21.9
2022-08-26T15:24:10.223Z,21.9
2022-08-26T15:26:19.140Z,21.7
2022-08-26T15:28:25.339Z,21.8
2022-08-26T15:30:31.552Z,21.6
2022-08-26T15:32:37.762Z,21.6
2022-08-26T15:36:50.156Z,21.5
2022-08-26T15:41:06.870Z,21.6
2022-08-26T15:43:27.677Z,21.5
2022-08-26T15:45:25.822Z,21.4
2022-08-26T15:46:23.799Z,21.2
2022-08-26T15:48:29.927Z,21.3
2022-08-26T15:52:42.334Z,21.4
2022-08-26T15:54:53.521Z,21.3
2022-08-26T15:57:01.180Z,21.2
2022-08-26T16:01:09.927Z,21.3
2022-08-26T16:07:28.557Z,21.2
2022-08-26T16:09:37.564Z,21.1
2022-08-26T16:11:43.775Z,21.1
2022-08-26T16:13:49.953Z,21.2
2022-08-26T16:15:56.280Z,21.2
2022-08-26T16:20:08.613Z,21.1
2022-08-26T16:28:36.232Z,21.3
2022-08-26T16:32:48.640Z,21.3
2022-08-26T16:35:00.350Z,21.4
2022-08-26T16:37:01.107Z,21.5
2022-08-26T16:41:16.324Z,21.4
2022-08-26T16:43:22.496Z,21.3
2022-08-26T16:44:28.078Z,21.3
2022-08-26T16:46:33.228Z,21.3
2022-08-26T16:48:39.401Z,21.1
2022-08-26T16:50:45.619Z,20.9
2022-08-26T16:52:54.594Z,20.6
2022-08-26T16:55:00.831Z,20.6
2022-08-26T16:57:06.991Z,20.6
2022-08-26T16:59:13.220Z,20.5
2022-08-26T17:01:19.484Z,20.4
2022-08-26T17:03:25.652Z,20.4
2022-08-26T17:05:31.848Z,20.4
2022-08-26T17:13:59.597Z,20.4
2022-08-26T17:16:05.787Z,20.3
2022-08-26T17:18:11.977Z,20.3
2022-08-26T17:20:18.204Z,20.3
2022-08-26T17:22:30.457Z,20.3
2022-08-26T17:24:33.430Z,20.3
2022-08-26T17:26:39.677Z,20.2
2022-08-26T17:28:45.839Z,20.2
2022-08-26T17:30:52.157Z,20.1
2022-08-26T17:32:58.367Z,20.1
2022-08-26T17:35:04.728Z,20
2022-08-26T17:37:13.586Z,20
2022-08-26T17:39:19.789Z,20
2022-08-26T17:41:26.011Z,19.9
2022-08-26T17:42:31.672Z,19.9
2022-08-26T17:44:36.764Z,19.9
2022-08-26T17:46:43.022Z,19.9
2022-08-26T17:48:49.220Z,19.9
2022-08-26T17:50:59.069Z,19.8
2022-08-26T17:59:23.154Z,19.8
2022-08-26T18:01:29.462Z,19.8
2022-08-26T18:03:35.717Z,19.7
2022-08-26T18:05:44.629Z,19.7
2022-08-26T18:07:50.876Z,19.7
2022-08-26T18:09:57.072Z,19.7
2022-08-26T18:12:03.350Z,19.7
2022-08-26T18:14:09.567Z,19.6
2022-08-26T18:16:15.939Z,19.5
2022-08-26T18:18:22.054Z,19.5
2022-08-26T18:20:31.260Z,19.4
2022-08-26T18:22:37.389Z,19.4
2022-08-26T18:24:56.532Z,19.5
2022-08-26T18:26:49.819Z,19.4
2022-08-26T18:28:56.038Z,19.4
2022-08-26T18:31:02.408Z,19.4
2022-08-26T18:35:17.514Z,19.2
2022-08-26T18:37:25.772Z,19.2
2022-08-26T18:39:30.027Z,19.2
2022-08-26T18:41:55.626Z,19.1
2022-08-26T18:44:01.974Z,19.1
2022-08-26T18:46:08.153Z,19.1
2022-08-26T18:50:23.327Z,19.1
2022-08-26T18:52:29.606Z,19.1
2022-08-26T18:54:35.821Z,19.1
2022-08-26T18:56:42.082Z,19.1
2022-08-26T18:58:48.337Z,19
2022-08-26T19:00:54.609Z,18.9
2022-08-26T19:03:03.769Z,19
2022-08-26T19:05:09.878Z,19
2022-08-26T19:07:16.086Z,19
2022-08-26T19:09:22.447Z,19
2022-08-26T19:11:32.393Z,19
2022-08-26T19:13:34.817Z,19
2022-08-26T19:17:50.451Z,18.9
2022-08-26T19:19:56.680Z,19
2022-08-26T19:22:02.899Z,19
2022-08-26T19:26:15.503Z,19
2022-08-26T19:28:21.594Z,18.9
2022-08-26T19:32:36.812Z,18.9
2022-08-26T19:34:43.165Z,18.9
2022-08-26T19:36:49.286Z,18.9
2022-08-26T19:37:53.785Z,18.9
2022-08-26T19:40:00.035Z,18.9
2022-08-26T19:42:06.274Z,18.9
2022-08-26T19:44:12.443Z,18.9
2022-08-26T19:46:21.512Z,18.8
2022-08-26T19:48:27.708Z,18.8
2022-08-26T19:50:33.934Z,18.8
2022-08-26T19:52:40.150Z,18.8
2022-08-26T19:54:46.365Z,18.8
2022-08-26T19:56:52.733Z,18.8
2022-08-26T19:58:58.854Z,18.8
2022-08-26T20:09:32.852Z,18.7
2022-08-26T20:11:39.025Z,18.7
2022-08-26T20:13:45.265Z,18.7
2022-08-26T20:15:54.304Z,18.6
2022-08-26T20:18:00.549Z,18.6
2022-08-26T20:20:06.783Z,18.6
2022-08-26T20:22:13.070Z,18.6
2022-08-26T20:24:19.525Z,18.6
2022-08-26T20:26:25.544Z,18.6
2022-08-26T20:32:47.040Z,18.5
2022-08-26T20:34:53.323Z,18.5
2022-08-26T20:35:57.879Z,18.6
2022-08-26T20:38:04.061Z,18.5
2022-08-26T20:40:10.683Z,18.5
2022-08-26T20:42:20.298Z,18.5
2022-08-26T20:44:25.556Z,18.5
2022-08-26T20:46:31.837Z,18.5
2022-08-26T20:48:38.147Z,18.4
2022-08-26T20:50:44.348Z,18.5
2022-08-26T20:52:50.607Z,18.5
2022-08-26T20:54:56.826Z,18.4
2022-08-26T20:57:03.086Z,18.4
2022-08-26T20:59:12.141Z,18.3
2022-08-26T21:03:24.623Z,18.3
2022-08-26T21:07:37.160Z,18.3
2022-08-26T21:09:43.493Z,18.3
2022-08-26T21:11:49.863Z,18.2
2022-08-26T21:14:06.706Z,18.3
2022-08-26T21:16:05.024Z,18.2
2022-08-26T21:18:11.480Z,18.2
2022-08-26T21:20:17.496Z,18.2
2022-08-26T21:34:02.444Z,18
2022-08-26T21:36:08.640Z,18
2022-08-26T21:40:21.189Z,17.9
2022-08-26T21:44:38.019Z,17.9
2022-08-26T21:46:44.275Z,17.9
2022-08-26T21:53:03.059Z,17.9
2022-08-26T21:55:09.369Z,17.8
2022-08-26T21:59:24.641Z,17.8
2022-08-26T22:01:31.019Z,17.8
2022-08-26T22:03:47.080Z,17.8
2022-08-26T22:05:43.469Z,17.7
2022-08-26T22:07:49.712Z,17.7
2022-08-26T22:12:05.087Z,17.6
2022-08-26T22:16:17.590Z,17.5
2022-08-26T22:18:25.735Z,17.5
2022-08-26T22:24:42.700Z,17.5
2022-08-26T22:31:04.274Z,17.3
2022-08-26T22:33:30.246Z,17.2
2022-08-26T22:37:42.750Z,17
2022-08-26T22:44:04.377Z,16.9
2022-08-26T22:46:10.723Z,16.8
2022-08-26T22:48:16.951Z,16.8
2022-08-26T22:50:23.231Z,16.7
2022-08-26T22:52:29.549Z,16.7
2022-08-26T22:54:38.562Z,16.6
2022-08-26T22:56:44.824Z,16.6
2022-08-26T22:58:51.162Z,16.6
2022-08-26T23:00:57.485Z,16.6
2022-08-26T23:03:03.864Z,16.6
2022-08-26T23:05:10.043Z,16.5
2022-08-26T23:07:16.300Z,16.5
2022-08-26T23:09:25.350Z,16.5
2022-08-26T23:11:31.649Z,16.4
2022-08-26T23:13:40.732Z,16.4
2022-08-26T23:15:44.408Z,16.4
2022-08-26T23:17:57.865Z,16.3
2022-08-26T23:19:56.968Z,16.3
2022-08-26T23:22:03.367Z,16.3
2022-08-26T23:24:12.404Z,16.3
2022-08-26T23:26:18.673Z,16.3
2022-08-26T23:28:25.016Z,16.3
2022-08-26T23:29:29.613Z,16.4
2022-08-26T23:31:36.101Z,16.4
2022-08-26T23:33:42.339Z,16.4
2022-08-26T23:35:48.608Z,16.4
2022-08-26T23:37:58.336Z,16.4
2022-08-26T23:40:03.972Z,16.4
2022-08-26T23:44:16.493Z,16.4
2022-08-26T23:46:22.815Z,16.4
2022-08-26T23:48:29.141Z,16.4
2022-08-26T23:52:44.483Z,16.3
2022-08-26T23:54:50.764Z,16.4
2022-08-26T23:56:57.039Z,16.3
